createdAt,value
2022-10-27T00:00:20.620Z,1.73
2022-10-27T00:02:48.856Z,1.60
2022-10-27T00:05:17.188Z,1.83
2022-10-27T00:07:45.473Z,2.57
2022-10-27T00:10:13.674Z,2.40
2022-10-27T00:12:41.924Z,2.10
2022-10-27T00:15:12.141Z,2.27
2022-10-27T00:17:40.647Z,2.00
2022-10-27T00:20:09.989Z,2.00
2022-10-27T00:22:38.165Z,2.00
2022-10-27T00:25:06.802Z,3.70
2022-10-27T00:27:35.192Z,1.93
2022-10-27T00:30:03.352Z,2.57
2022-10-27T00:32:32.896Z,2.03
2022-10-27T00:35:01.088Z,2.27
2022-10-27T00:37:30.013Z,2.47
2022-10-27T00:39:58.225Z,2.07
2022-10-27T00:42:26.389Z,1.77
2022-10-27T00:44:54.584Z,1.60
2022-10-27T00:47:24.598Z,2.87
2022-10-27T00:49:56.473Z,1.47
2022-10-27T00:52:27.605Z,1.67
2022-10-27T00:54:57.147Z,1.83
2022-10-27T00:57:26.010Z,2.00
2022-10-27T00:59:54.310Z,2.00
2022-10-27T01:02:22.560Z,2.83
2022-10-27T01:04:52.676Z,1.87
2022-10-27T01:07:22.821Z,1.60
2022-10-27T01:09:51.789Z,1.60
2022-10-27T01:12:20.032Z,1.50
2022-10-27T01:14:48.684Z,1.40
2022-10-27T01:17:23.535Z,1.83
2022-10-27T01:20:03.394Z,2.30
2022-10-27T01:22:36.739Z,1.53
2022-10-27T01:25:18.843Z,1.60
2022-10-27T01:28:04.967Z,1.60
2022-10-27T01:30:37.720Z,1.30
2022-10-27T01:33:09.474Z,1.60
2022-10-27T01:35:40.554Z,1.93
2022-10-27T01:38:12.637Z,1.30
2022-10-27T01:40:43.875Z,2.03
2022-10-27T01:43:15.411Z,1.50
2022-10-27T01:45:43.843Z,1.83
2022-10-27T01:48:14.239Z,1.30
2022-10-27T01:50:50.665Z,1.80
2022-10-27T01:53:25.343Z,1.50
2022-10-27T01:56:00.716Z,1.50
2022-10-27T01:58:35.400Z,1.63
2022-10-27T02:01:10.776Z,1.20
2022-10-27T02:03:46.582Z,1.90
2022-10-27T02:06:19.561Z,1.63
2022-10-27T02:08:50.521Z,1.40
2022-10-27T02:11:18.773Z,1.63
2022-10-27T02:13:48.278Z,1.73
2022-10-27T02:16:18.994Z,1.47
2022-10-27T02:18:50.978Z,1.10
2022-10-27T02:21:19.973Z,1.30
2022-10-27T02:23:48.277Z,1.60
2022-10-27T02:26:19.459Z,1.60
2022-10-27T02:28:50.341Z,1.17
2022-10-27T02:31:19.129Z,1.80
2022-10-27T02:33:49.074Z,1.50
2022-10-27T02:36:17.267Z,1.23
2022-10-27T02:38:45.449Z,1.60
2022-10-27T02:41:13.613Z,0.90
2022-10-27T02:43:42.012Z,1.40
2022-10-27T02:46:10.220Z,1.67
2022-10-27T02:48:38.425Z,1.37
2022-10-27T02:51:08.173Z,1.30
2022-10-27T02:53:36.840Z,1.63
2022-10-27T02:56:05.408Z,0.93
2022-10-27T02:58:33.628Z,1.70
2022-10-27T03:01:01.832Z,1.37
2022-10-27T03:03:30.081Z,1.53
2022-10-27T03:05:58.273Z,1.50
2022-10-27T03:08:27.847Z,1.20
2022-10-27T03:10:56.052Z,1.30
2022-10-27T03:13:24.289Z,1.20
2022-10-27T03:15:52.549Z,1.40
2022-10-27T03:18:20.805Z,1.30
2022-10-27T03:20:49.077Z,1.10
2022-10-27T03:23:17.282Z,1.00
2022-10-27T03:25:47.813Z,0.90
2022-10-27T03:28:17.045Z,1.20
2022-10-27T03:30:45.211Z,1.07
2022-10-27T03:33:13.402Z,0.80
2022-10-27T03:35:41.637Z,1.47
2022-10-27T03:38:10.856Z,0.90
2022-10-27T03:40:39.057Z,1.10
2022-10-27T03:43:08.609Z,1.10
2022-10-27T03:45:36.798Z,1.10
2022-10-27T03:48:06.193Z,1.30
2022-10-27T03:50:34.441Z,1.00
2022-10-27T03:53:03.471Z,1.23
2022-10-27T03:55:31.936Z,0.90
2022-10-27T03:58:00.405Z,1.23
2022-10-27T04:00:31.450Z,0.93
2022-10-27T04:02:59.802Z,1.20
2022-10-27T04:05:27.956Z,2.97
2022-10-27T04:07:56.144Z,1.20
2022-10-27T04:10:24.357Z,1.00
2022-10-27T04:12:53.603Z,0.90
2022-10-27T04:15:22.501Z,1.00
2022-10-27T04:17:54.303Z,1.10
2022-10-27T04:20:22.839Z,1.40
2022-10-27T04:22:51.404Z,0.90
2022-10-27T04:25:19.858Z,1.20
2022-10-27T04:27:48.317Z,1.00
2022-10-27T04:30:16.741Z,1.43
2022-10-27T04:32:44.925Z,1.00
2022-10-27T04:35:14.456Z,1.07
2022-10-27T04:37:42.682Z,1.30
2022-10-27T04:40:11.488Z,1.30
2022-10-27T04:42:39.719Z,1.17
2022-10-27T04:45:08.432Z,1.00
2022-10-27T04:47:36.692Z,1.80
2022-10-27T04:50:05.843Z,1.23
2022-10-27T04:52:37.327Z,1.47
2022-10-27T04:55:08.115Z,1.10
2022-10-27T04:57:36.959Z,1.30
2022-10-27T05:00:05.342Z,1.10
2022-10-27T05:02:36.301Z,1.10
2022-10-27T05:05:07.314Z,1.60
2022-10-27T05:07:36.885Z,1.10
2022-10-27T05:10:05.343Z,1.13
2022-10-27T05:12:33.555Z,1.30
2022-10-27T05:15:01.741Z,1.23
2022-10-27T05:17:29.906Z,1.20
2022-10-27T05:19:58.094Z,1.20
2022-10-27T05:22:26.412Z,0.90
2022-10-27T05:24:55.934Z,0.80
2022-10-27T05:27:24.222Z,0.90
2022-10-27T05:29:52.410Z,1.20
2022-10-27T05:32:20.613Z,0.93
2022-10-27T05:34:48.792Z,1.30
2022-10-27T05:37:17.368Z,1.80
2022-10-27T05:39:47.571Z,2.13
2022-10-27T05:42:17.151Z,1.33
2022-10-27T05:44:45.325Z,1.40
2022-10-27T05:47:13.528Z,1.83
2022-10-27T05:49:41.719Z,1.17
2022-10-27T05:52:09.909Z,1.67
2022-10-27T05:54:38.150Z,1.30
2022-10-27T05:57:06.342Z,1.43
2022-10-27T05:59:35.910Z,1.20
2022-10-27T06:02:04.261Z,1.10
2022-10-27T06:04:32.537Z,1.30
2022-10-27T06:07:00.721Z,1.20
2022-10-27T06:09:28.985Z,1.70
2022-10-27T06:11:57.155Z,1.00
2022-10-27T06:14:28.137Z,1.37
2022-10-27T06:17:00.186Z,0.80
2022-10-27T06:19:28.392Z,1.23
2022-10-27T06:21:56.582Z,1.13
2022-10-27T06:24:24.848Z,0.90
2022-10-27T06:26:56.155Z,1.20
2022-10-27T06:29:26.234Z,1.23
2022-10-27T06:31:54.450Z,1.00
2022-10-27T06:34:24.115Z,1.53
2022-10-27T06:36:52.322Z,1.20
2022-10-27T06:39:20.508Z,1.67
2022-10-27T06:41:48.685Z,1.20
2022-10-27T06:44:16.884Z,1.00
2022-10-27T06:46:45.077Z,1.30
2022-10-27T06:49:15.489Z,0.93
2022-10-27T06:51:47.233Z,1.20
2022-10-27T06:54:15.418Z,1.03
2022-10-27T06:56:43.578Z,0.80
2022-10-27T06:59:11.778Z,1.10
2022-10-27T07:01:40.048Z,1.10
2022-10-27T07:04:08.356Z,0.80
2022-10-27T07:06:36.515Z,0.70
2022-10-27T07:09:08.885Z,1.07
2022-10-27T07:11:38.172Z,0.73
2022-10-27T07:14:06.356Z,1.00
2022-10-27T07:16:35.120Z,1.07
2022-10-27T07:19:03.578Z,0.80
2022-10-27T07:21:31.971Z,1.00
2022-10-27T07:24:00.408Z,1.03
2022-10-27T07:26:29.937Z,0.93
2022-10-27T07:28:58.140Z,0.67
2022-10-27T07:31:26.349Z,0.90
2022-10-27T07:33:54.558Z,1.00
2022-10-27T07:36:22.773Z,0.90
2022-10-27T07:38:50.972Z,0.70
2022-10-27T07:41:19.154Z,0.97
2022-10-27T07:43:49.767Z,0.73
2022-10-27T07:46:18.023Z,0.87
2022-10-27T07:48:46.242Z,0.97
2022-10-27T07:51:14.467Z,1.00
2022-10-27T07:53:42.653Z,0.90
2022-10-27T07:56:10.833Z,0.90
2022-10-27T07:58:39.014Z,0.90
2022-10-27T08:01:18.700Z,1.10
2022-10-27T08:03:48.830Z,0.73
2022-10-27T08:06:19.537Z,1.10
2022-10-27T08:08:47.757Z,1.00
2022-10-27T08:11:16.018Z,1.20
2022-10-27T08:13:44.243Z,0.70
2022-10-27T08:16:12.492Z,1.00
2022-10-27T08:18:47.863Z,1.40
2022-10-27T08:21:18.366Z,1.37
2022-10-27T08:23:46.540Z,1.60
2022-10-27T08:26:14.739Z,1.40
2022-10-27T08:28:42.911Z,1.20
2022-10-27T08:31:11.304Z,1.73
2022-10-27T08:33:39.498Z,1.80
2022-10-27T08:36:11.461Z,1.40
2022-10-27T08:38:39.647Z,1.50
2022-10-27T08:41:15.229Z,1.10
2022-10-27T08:43:53.090Z,1.47
2022-10-27T08:46:24.822Z,1.30
2022-10-27T08:48:55.582Z,1.67
2022-10-27T08:51:26.551Z,1.10
2022-10-27T08:53:55.952Z,2.03
2022-10-27T08:56:26.335Z,1.47
2022-10-27T08:58:54.524Z,1.67
2022-10-27T09:01:26.811Z,1.63
2022-10-27T09:04:06.242Z,1.53
2022-10-27T09:06:38.298Z,1.53
2022-10-27T09:09:11.640Z,1.77
2022-10-27T09:11:41.790Z,1.43
2022-10-27T09:14:19.565Z,2.07
2022-10-27T09:16:49.727Z,2.03
2022-10-27T09:19:20.221Z,1.37
2022-10-27T09:21:51.433Z,1.73
2022-10-27T09:24:21.902Z,1.70
2022-10-27T09:26:50.854Z,1.80
2022-10-27T09:29:22.086Z,1.90
2022-10-27T09:31:51.513Z,1.77
2022-10-27T09:34:20.742Z,1.97
2022-10-27T09:36:50.353Z,1.27
2022-10-27T09:39:18.570Z,2.07
2022-10-27T09:41:46.791Z,1.50
2022-10-27T09:44:20.463Z,1.90
2022-10-27T09:46:52.511Z,1.57
2022-10-27T09:49:21.246Z,1.80
2022-10-27T09:51:53.654Z,1.50
2022-10-27T09:54:32.589Z,1.70
2022-10-27T09:57:06.373Z,1.47
2022-10-27T09:59:36.740Z,1.77
2022-10-27T10:02:05.933Z,2.27
2022-10-27T10:04:35.935Z,2.23
2022-10-27T10:07:06.310Z,1.93
2022-10-27T10:09:39.373Z,2.00
2022-10-27T10:12:23.528Z,1.73
2022-10-27T10:14:52.631Z,1.80
2022-10-27T10:17:28.109Z,2.30
2022-10-27T10:19:57.540Z,1.60
2022-10-27T10:22:31.621Z,1.30
2022-10-27T10:25:00.962Z,1.60
2022-10-27T10:27:30.655Z,1.50
2022-10-27T10:30:00.142Z,1.80
2022-10-27T10:32:29.132Z,1.97
2022-10-27T10:34:57.425Z,2.00
2022-10-27T10:37:38.441Z,1.50
2022-10-27T10:40:22.538Z,1.40
2022-10-27T10:42:51.350Z,1.60
2022-10-27T10:45:20.805Z,1.90
2022-10-27T10:47:49.576Z,1.57
2022-10-27T10:50:18.379Z,2.30
2022-10-27T10:52:50.208Z,1.83
2022-10-27T10:55:20.680Z,2.00
2022-10-27T10:57:48.942Z,1.80
2022-10-27T11:00:18.486Z,2.07
2022-10-27T11:02:56.682Z,1.80
2022-10-27T11:05:37.864Z,2.23
2022-10-27T11:08:08.011Z,1.80
2022-10-27T11:10:38.418Z,3.23
2022-10-27T11:13:07.969Z,2.40
2022-10-27T11:15:37.561Z,1.80
2022-10-27T11:18:12.573Z,2.30
2022-10-27T11:20:40.898Z,2.27
2022-10-27T11:23:16.163Z,3.00
2022-10-27T11:25:44.353Z,3.40
2022-10-27T11:28:16.546Z,2.80
2022-10-27T11:30:47.773Z,2.67
2022-10-27T11:33:22.109Z,3.60
2022-10-27T11:35:54.166Z,3.90
2022-10-27T11:41:03.677Z,3.33
2022-10-27T11:43:35.457Z,2.30
2022-10-27T11:46:05.831Z,3.37
2022-10-27T11:48:35.679Z,3.67
2022-10-27T11:51:06.351Z,3.00
2022-10-27T11:53:39.928Z,3.23
2022-10-27T11:56:14.894Z,3.40
2022-10-27T11:58:47.530Z,5.00
2022-10-27T12:01:19.881Z,3.13
2022-10-27T12:03:51.946Z,3.27
2022-10-27T12:06:28.547Z,3.17
2022-10-27T12:09:04.023Z,3.73
2022-10-27T12:11:40.319Z,2.57
2022-10-27T12:14:12.160Z,2.83
2022-10-27T12:16:43.143Z,2.73
2022-10-27T12:19:15.290Z,2.60
2022-10-27T12:21:45.530Z,3.20
2022-10-27T12:24:18.768Z,2.70
2022-10-27T12:26:48.197Z,2.77
2022-10-27T12:29:17.436Z,2.50
2022-10-27T12:31:49.101Z,3.10
2022-10-27T12:34:18.535Z,2.80
2022-10-27T12:36:51.066Z,3.00
2022-10-27T12:39:25.386Z,2.90
2022-10-27T12:41:57.110Z,2.37
2022-10-27T12:44:32.067Z,3.10
2022-10-27T12:47:06.933Z,2.30
2022-10-27T12:49:37.695Z,1.97
2022-10-27T12:52:07.376Z,2.70
2022-10-27T12:57:27.782Z,3.20
2022-10-27T12:59:59.333Z,2.10
2022-10-27T13:02:29.603Z,2.27
2022-10-27T13:05:25.729Z,2.77
2022-10-27T13:08:05.023Z,1.90
2022-10-27T13:10:58.775Z,2.07
2022-10-27T13:13:33.817Z,2.10
2022-10-27T13:16:06.055Z,2.27
2022-10-27T13:18:42.642Z,2.33
2022-10-27T13:21:16.594Z,2.20
2022-10-27T13:23:53.089Z,2.07
2022-10-27T13:26:27.863Z,2.20
2022-10-27T13:28:58.087Z,1.93
2022-10-27T13:31:27.125Z,2.50
2022-10-27T13:34:19.359Z,2.17
2022-10-27T13:36:47.628Z,2.27
2022-10-27T13:39:49.905Z,1.97
2022-10-27T13:44:49.237Z,2.13
2022-10-27T13:47:19.022Z,2.63
2022-10-27T13:50:00.375Z,2.87
2022-10-27T13:52:34.795Z,2.87
2022-10-27T13:55:22.017Z,2.70
2022-10-27T13:58:08.011Z,2.50
2022-10-27T14:00:55.237Z,3.10
2022-10-27T14:03:35.256Z,2.63
2022-10-27T14:06:04.071Z,2.30
2022-10-27T14:08:33.163Z,2.97
2022-10-27T14:11:02.775Z,3.13
2022-10-27T14:13:36.492Z,2.80
2022-10-27T14:16:06.359Z,2.73
2022-10-27T14:18:35.688Z,2.70
2022-10-27T14:21:11.739Z,2.80
2022-10-27T14:23:40.109Z,2.77
2022-10-27T14:26:24.262Z,3.23
2022-10-27T14:28:52.655Z,2.40
2022-10-27T14:31:23.957Z,3.20
2022-10-27T14:33:52.767Z,3.37
2022-10-27T14:36:22.311Z,3.43
2022-10-27T14:38:52.021Z,3.93
2022-10-27T14:41:21.457Z,2.80
2022-10-27T14:43:51.088Z,3.60
2022-10-27T14:46:23.543Z,3.13
2022-10-27T14:48:59.751Z,4.30
2022-10-27T14:51:29.062Z,3.77
2022-10-27T14:53:58.287Z,4.07
2022-10-27T14:56:27.638Z,4.17
2022-10-27T14:58:57.060Z,3.40
2022-10-27T15:01:35.298Z,3.97
2022-10-27T15:04:16.827Z,3.50
2022-10-27T15:06:46.427Z,3.77
2022-10-27T15:09:21.962Z,3.43
2022-10-27T15:11:50.177Z,4.20
2022-10-27T15:14:18.395Z,3.93
2022-10-27T15:16:47.766Z,3.10
2022-10-27T15:19:18.639Z,3.40
2022-10-27T15:21:55.920Z,3.17
2022-10-27T15:24:25.569Z,3.87
2022-10-27T15:26:54.358Z,3.97
2022-10-27T15:29:23.151Z,4.43
2022-10-27T15:31:58.905Z,3.60
2022-10-27T15:34:36.213Z,3.40
2022-10-27T15:37:25.666Z,3.90
2022-10-27T15:39:54.123Z,3.40
2022-10-27T15:42:23.411Z,3.80
2022-10-27T15:44:52.190Z,3.30
2022-10-27T15:47:40.493Z,3.57
2022-10-27T15:50:24.170Z,3.83
2022-10-27T15:52:55.414Z,3.73
2022-10-27T15:55:24.703Z,3.60
2022-10-27T15:57:53.734Z,4.30
2022-10-27T16:00:24.896Z,4.50
2022-10-27T16:02:56.176Z,4.57
2022-10-27T16:05:44.248Z,4.67
2022-10-27T16:08:31.330Z,3.97
2022-10-27T16:10:59.533Z,3.60
2022-10-27T16:13:27.925Z,4.40
2022-10-27T16:15:57.645Z,4.77
2022-10-27T16:18:25.942Z,4.73
2022-10-27T16:20:55.742Z,4.90
2022-10-27T16:23:24.019Z,4.70
2022-10-27T16:25:52.207Z,4.43
2022-10-27T16:28:23.437Z,4.77
2022-10-27T16:30:52.374Z,4.63
2022-10-27T16:33:22.874Z,4.57
2022-10-27T16:35:51.111Z,5.00
2022-10-27T16:38:20.673Z,4.70
2022-10-27T16:40:49.038Z,4.60
2022-10-27T16:43:22.585Z,4.00
2022-10-27T16:45:50.879Z,4.17
2022-10-27T16:48:19.212Z,5.73
2022-10-27T16:50:48.297Z,5.67
2022-10-27T16:53:20.612Z,4.90
2022-10-27T16:55:58.614Z,5.20
2022-10-27T16:58:30.024Z,4.60
2022-10-27T17:01:04.525Z,4.67
2022-10-27T17:03:32.846Z,4.33
2022-10-27T17:06:01.217Z,4.90
2022-10-27T17:08:29.744Z,5.27
2022-10-27T17:11:00.505Z,5.37
2022-10-27T17:13:28.870Z,4.30
2022-10-27T17:15:57.123Z,6.70
2022-10-27T17:18:25.334Z,4.63
2022-10-27T17:20:57.384Z,4.70
2022-10-27T17:23:25.759Z,4.80
2022-10-27T17:25:53.985Z,5.33
2022-10-27T17:28:23.520Z,4.33
2022-10-27T17:30:53.454Z,5.27
2022-10-27T17:33:21.893Z,5.33
2022-10-27T17:35:55.823Z,5.77
2022-10-27T17:38:24.049Z,5.77
2022-10-27T17:40:52.922Z,5.00
2022-10-27T17:43:21.171Z,5.37
2022-10-27T17:46:01.105Z,5.67
2022-10-27T17:48:30.119Z,5.50
2022-10-27T17:51:05.535Z,5.43
2022-10-27T17:53:34.380Z,6.13
2022-10-27T17:56:03.376Z,4.50
2022-10-27T17:58:35.143Z,4.83
2022-10-27T18:01:05.573Z,4.63
2022-10-27T18:03:35.856Z,5.63
2022-10-27T18:06:08.700Z,4.80
2022-10-27T18:08:38.194Z,5.43
2022-10-27T18:11:07.226Z,4.73
2022-10-27T18:13:36.402Z,4.60
2022-10-27T18:16:10.025Z,5.53
2022-10-27T18:18:38.570Z,4.70
2022-10-27T18:21:07.585Z,5.17
2022-10-27T18:23:37.317Z,4.40
2022-10-27T18:26:06.075Z,4.60
2022-10-27T18:28:35.046Z,5.50
2022-10-27T18:31:05.083Z,5.90
2022-10-27T18:33:35.409Z,5.00
2022-10-27T18:36:07.403Z,4.90
2022-10-27T18:38:35.985Z,5.87
2022-10-27T18:41:05.350Z,5.40
2022-10-27T18:43:33.809Z,4.80
2022-10-27T18:46:03.419Z,5.13
2022-10-27T18:48:32.045Z,5.60
2022-10-27T18:51:04.376Z,5.67
2022-10-27T18:53:32.663Z,5.27
2022-10-27T18:56:02.164Z,6.17
2022-10-27T18:58:31.754Z,5.30
2022-10-27T19:01:03.419Z,6.10
2022-10-27T19:03:36.233Z,6.30
2022-10-27T19:06:06.681Z,5.30
2022-10-27T19:08:35.468Z,5.97
2022-10-27T19:11:05.516Z,6.10
2022-10-27T19:13:33.786Z,5.40
2022-10-27T19:16:02.551Z,5.87
2022-10-27T19:18:31.501Z,6.10
2022-10-27T19:21:00.266Z,6.20
2022-10-27T19:23:33.016Z,7.00
2022-10-27T19:26:05.542Z,6.10
2022-10-27T19:28:33.924Z,6.17
2022-10-27T19:31:02.375Z,5.80
2022-10-27T19:33:31.408Z,5.30
2022-10-27T19:36:04.005Z,5.20
2022-10-27T19:38:33.557Z,5.63
2022-10-27T19:41:02.032Z,5.80
2022-10-27T19:43:31.928Z,5.50
2022-10-27T19:46:00.176Z,6.23
2022-10-27T19:48:28.658Z,5.57
2022-10-27T19:50:57.076Z,5.57
2022-10-27T19:53:25.406Z,6.13
2022-10-27T19:55:54.997Z,5.40
2022-10-27T19:58:25.740Z,6.03
2022-10-27T20:00:54.519Z,5.73
2022-10-27T20:03:22.806Z,5.00
2022-10-27T20:05:54.841Z,5.00
2022-10-27T20:08:23.129Z,6.03
2022-10-27T20:10:52.481Z,4.70
2022-10-27T20:13:22.262Z,6.83
2022-10-27T20:15:50.469Z,5.73
2022-10-27T20:18:18.659Z,6.30
2022-10-27T20:20:54.471Z,5.43
2022-10-27T20:23:22.673Z,4.97
2022-10-27T20:26:10.590Z,6.67
2022-10-27T20:28:46.101Z,4.90
2022-10-27T20:31:15.431Z,5.60
2022-10-27T20:33:43.751Z,5.67
2022-10-27T20:36:15.374Z,6.27
2022-10-27T20:38:44.371Z,5.87
2022-10-27T20:41:13.759Z,6.00
2022-10-27T20:43:42.184Z,4.57
2022-10-27T20:46:11.999Z,5.40
2022-10-27T20:48:40.970Z,5.10
2022-10-27T20:51:10.583Z,6.37
2022-10-27T20:53:39.029Z,5.50
2022-10-27T20:56:07.518Z,4.57
2022-10-27T20:58:36.345Z,5.10
2022-10-27T21:01:25.831Z,5.67
2022-10-27T21:03:55.796Z,5.37
2022-10-27T21:06:24.024Z,5.53
2022-10-27T21:08:54.715Z,4.80
2022-10-27T21:11:22.945Z,4.13
2022-10-27T21:13:51.898Z,4.60
2022-10-27T21:16:20.097Z,4.70
2022-10-27T21:18:50.694Z,5.47
2022-10-27T21:21:20.767Z,4.37
2022-10-27T21:23:49.182Z,4.17
2022-10-27T21:26:17.644Z,4.20
2022-10-27T21:28:46.078Z,3.73
2022-10-27T21:31:14.963Z,4.60
2022-10-27T21:33:43.780Z,4.83
2022-10-27T21:36:12.944Z,4.30
2022-10-27T21:38:43.696Z,4.63
2022-10-27T21:41:12.674Z,5.10
2022-10-27T21:43:42.057Z,6.63
2022-10-27T21:46:10.588Z,4.80
2022-10-27T21:48:39.469Z,4.83
2022-10-27T21:51:07.890Z,4.87
2022-10-27T21:53:36.101Z,4.47
2022-10-27T21:56:07.567Z,4.20
2022-10-27T21:58:37.282Z,4.10
2022-10-27T22:01:06.655Z,5.10
2022-10-27T22:03:34.949Z,4.70
2022-10-27T22:06:03.495Z,4.87
2022-10-27T22:08:32.101Z,4.17
2022-10-27T22:11:08.193Z,4.00
2022-10-27T22:13:36.468Z,4.27
2022-10-27T22:16:05.747Z,4.67
2022-10-27T22:18:33.982Z,4.23
2022-10-27T22:21:02.183Z,4.10
2022-10-27T22:23:30.635Z,4.20
2022-10-27T22:26:04.100Z,4.77
2022-10-27T22:28:33.842Z,3.90
2022-10-27T22:31:06.119Z,4.37
2022-10-27T22:33:34.464Z,4.30
2022-10-27T22:36:03.363Z,4.07
2022-10-27T22:38:31.760Z,4.03
2022-10-27T22:41:02.742Z,3.83
2022-10-27T22:43:31.317Z,4.20
2022-10-27T22:46:00.845Z,4.13
2022-10-27T22:48:29.366Z,4.90
2022-10-27T22:51:01.303Z,4.33
2022-10-27T22:53:32.920Z,4.23
2022-10-27T22:56:04.678Z,4.57
2022-10-27T22:58:33.026Z,3.70
2022-10-27T23:01:06.624Z,4.90
2022-10-27T23:03:34.930Z,6.33
2022-10-27T23:06:03.402Z,4.50
2022-10-27T23:08:31.852Z,3.50
2022-10-27T23:11:00.964Z,4.00
2022-10-27T23:13:29.870Z,4.67
2022-10-27T23:15:58.450Z,4.80
2022-10-27T23:18:28.518Z,5.17
2022-10-27T23:20:57.212Z,4.10
2022-10-27T23:23:25.416Z,3.90
2022-10-27T23:25:53.644Z,4.80
2022-10-27T23:28:22.204Z,3.50
2022-10-27T23:30:50.636Z,4.83
2022-10-27T23:33:19.207Z,4.20
2022-10-27T23:35:57.550Z,4.07
2022-10-27T23:38:26.091Z,3.47
2022-10-27T23:40:55.271Z,4.13
2022-10-27T23:43:23.973Z,3.83
2022-10-27T23:45:59.154Z,4.07
2022-10-27T23:48:27.379Z,3.87
2022-10-27T23:50:57.021Z,4.80
2022-10-27T23:53:25.675Z,5.07
2022-10-27T23:55:55.283Z,5.50
2022-10-27T23:58:23.826Z,5.23
